Portada
METAR-TAF:

METAR-TAF

Aeroports :

Bagdad, Iraq

latitud: 33-15-45N, longitud: 44-14-04E, altitud: 35 m

Observació

L'informe es va fer fa 41 minuts, a les 14:00 UTC
Vent 4 kt del Nord/Nord-Oest
Temperatura 17°C
Humitat 63%
Pressió 1014 hPa
Visibilitat 10 km o més
sense núvols per sota de 1500 mi sense presència de cumulonimbus.

METAR: ORBI 051400Z 34004KT CAVOK 17/10 Q1014 NOSIG

Hora: 17:41 (14:41 UTC)

Pronòstic

L'informe es va fer fa 3 hores i 41 minuts, a les 11:00 UTC
Pronòstic vàlid del 05 a les 12 UTC al 06 a les 12 UTC
Vent 6 kt del Oest
Visibilitat: 8000 m
Núvols disperses a una alçada de 3000 ft
Cel ennuvolat a una alçada de 8000 ft
Temporalment
l' 05 a les 18 UTC al 06 a les 03 UTC
Escasses núvols a una alçada de 2500 ft, Cumulonimbus.
Evolucionant progressivament
l' 06 a les 07 UTC al 06 a les 09 UTC
Vent 6 kt del Nord-Oest

TAF: ORBI 051100Z 0512/0612 26006KT 8000 SCT030 BKN080 TEMPO 0518/0603 -TSSHRA FEW025CB BECMG 0607/0609 32006KT NSC

Observacions i pronòstics meteorològics de més de 4000 aeroports (METAR i TAF).

Les estacions disponibles són els punts grocs i vermells al mapa.

Posi el ratolí al punt desitjat per veure el nom de l'estació.

Feu clic per veure les observacions i els pronòstics meteorològics.

Per canviar el mapa: feu clic els botons verds amb una creu de color negre per apropar; al botó verd amb un guió per allunyar la imatge; o en les fletxes verdes per a mapes adjacents.


METAR-TAF: